Time;durP1;ratioP1;P1;durP2;ratioP2;P2;SDS_P1;SDS_P2;PMS_P1;PMS_P2;Temp;Humidity;BMP_temperature;BMP_pressure;BME280_temperature;BME280_humidity;BME280_pressure;Samples;Min_cycle;Max_cycle;Signal;HPM_P1;HPM_P2
2023/07/20 00:01:27;;;;;;;;;;;22.10;61.90;;;;;;5015605;28;1894;-72
2023/07/20 00:03:55;;;;;;;;;;;22.10;61.90;;;;;;5020873;28;1242;-72
2023/07/20 00:06:24;;;;;;;;;;;22.10;62.00;;;;;;5020670;28;927;-72
2023/07/20 00:08:50;;;;;;;;;;;22.10;61.90;;;;;;5022404;28;881;-71
2023/07/20 00:11:16;;;;;;;;;;;22.10;62.30;;;;;;5016867;28;1355;-72
2023/07/20 00:13:41;;;;;;;;;;;22.10;61.90;;;;;;5015994;28;875;-72
2023/07/20 00:16:07;;;;;;;;;;;22.10;61.90;;;;;;5016163;28;908;-71
2023/07/20 00:18:32;;;;;;;;;;;22.10;61.90;;;;;;5014692;28;1263;-71
2023/07/20 00:20:59;;;;;;;;;;;22.10;61.90;;;;;;5015735;28;1290;-71
2023/07/20 00:23:25;;;;;;;;;;;22.10;62.00;;;;;;5020581;28;1915;-71
2023/07/20 00:25:51;;;;;;;;;;;22.10;62.00;;;;;;5018576;28;865;-72
2023/07/20 00:28:16;;;;;;;;;;;22.10;62.00;;;;;;5019708;28;986;-72
2023/07/20 00:30:42;;;;;;;;;;;22.10;62.00;;;;;;5017242;28;1255;-72
2023/07/20 00:33:10;;;;;;;;;;;22.10;62.00;;;;;;5019092;28;901;-72
2023/07/20 00:35:36;;;;;;;;;;;22.10;62.10;;;;;;5019735;28;880;-72
2023/07/20 00:38:02;;;;;;;;;;;22.10;62.10;;;;;;5018834;28;1077;-74
2023/07/20 00:40:27;;;;;;;;;;;22.10;62.10;;;;;;5017912;28;1306;-72
2023/07/20 00:42:53;;;;;;;;;;;22.10;62.10;;;;;;5019742;28;1965;-72
2023/07/20 00:45:18;;;;;;;;;;;22.10;62.10;;;;;;5019993;28;849;-72
2023/07/20 00:47:44;;;;;;;;;;;22.10;62.10;;;;;;5018117;28;868;-72
2023/07/20 00:50:10;;;;;;;;;;;22.10;62.10;;;;;;5018006;28;1355;-72
2023/07/20 00:52:36;;;;;;;;;;;22.10;62.10;;;;;;5012956;28;887;-72
2023/07/20 00:55:01;;;;;;;;;;;22.10;62.20;;;;;;5015610;28;856;-73
2023/07/20 00:57:27;;;;;;;;;;;22.10;62.20;;;;;;5016717;28;850;-72
2023/07/20 00:59:52;;;;;;;;;;;22.10;62.20;;;;;;5013603;28;1253;-72
2023/07/20 01:02:18;;;;;;;;;;;22.10;62.20;;;;;;5002178;28;1902;-74
2023/07/20 01:04:43;;;;;;;;;;;22.10;62.20;;;;;;5017278;28;871;-74
2023/07/20 01:07:10;;;;;;;;;;;22.10;62.20;;;;;;5020904;28;872;-74
2023/07/20 01:09:39;;;;;;;;;;;22.10;62.20;;;;;;5018110;28;1269;-74
2023/07/20 01:12:06;;;;;;;;;;;22.00;62.10;;;;;;5019763;28;816;-74
2023/07/20 01:14:32;;;;;;;;;;;22.10;62.20;;;;;;5019569;28;1546;-74
2023/07/20 01:16:58;;;;;;;;;;;22.10;62.20;;;;;;5019953;28;873;-73
2023/07/20 01:19:23;;;;;;;;;;;22.10;62.30;;;;;;5019361;28;1314;-72
2023/07/20 01:21:56;;;;;;;;;;;22.10;62.30;;;;;;5016618;28;1906;-72
2023/07/20 01:24:31;;;;;;;;;;;22.10;62.30;;;;;;5016147;28;820;-72
2023/07/20 01:27:11;;;;;;;;;;;22.00;62.20;;;;;;5020075;28;883;-71
2023/07/20 01:29:56;;;;;;;;;;;22.00;62.20;;;;;;5017524;28;1405;-73
2023/07/20 01:32:22;;;;;;;;;;;22.00;62.20;;;;;;5017998;28;1401;-73
2023/07/20 01:34:47;;;;;;;;;;;22.00;62.30;;;;;;5017110;28;958;-73
2023/07/20 01:37:13;;;;;;;;;;;22.10;62.30;;;;;;5018700;28;889;-74
2023/07/20 01:39:38;;;;;;;;;;;22.00;62.30;;;;;;5010079;28;1354;-74
2023/07/20 01:42:04;;;;;;;;;;;22.00;62.30;;;;;;5016417;28;1898;-75
2023/07/20 01:44:30;;;;;;;;;;;22.10;62.40;;;;;;5020226;28;1288;-71
2023/07/20 01:46:55;;;;;;;;;;;22.10;62.40;;;;;;5018692;28;863;-71
2023/07/20 01:49:21;;;;;;;;;;;22.00;62.30;;;;;;5014410;28;1264;-71
2023/07/20 01:51:46;;;;;;;;;;;22.00;62.40;;;;;;5014282;28;1002;-72
2023/07/20 01:54:12;;;;;;;;;;;22.10;62.40;;;;;;5021615;28;831;-74
2023/07/20 01:56:37;;;;;;;;;;;22.00;62.30;;;;;;5023362;28;917;-74
2023/07/20 01:59:03;;;;;;;;;;;22.00;62.40;;;;;;5020196;28;1328;-75
2023/07/20 02:01:28;;;;;;;;;;;22.00;62.40;;;;;;5023470;28;1902;-74
2023/07/20 02:03:54;;;;;;;;;;;22.00;62.40;;;;;;5022423;28;816;-71
2023/07/20 02:06:19;;;;;;;;;;;22.00;62.40;;;;;;5021280;28;871;-73
2023/07/20 02:08:45;;;;;;;;;;;22.00;62.40;;;;;;5020995;28;851;-73
2023/07/20 02:11:10;;;;;;;;;;;22.10;62.50;;;;;;5020023;28;1347;-74
2023/07/20 02:13:36;;;;;;;;;;;22.00;62.40;;;;;;5019897;28;1085;-73
2023/07/20 02:16:01;;;;;;;;;;;22.00;62.40;;;;;;5022696;28;863;-74
2023/07/20 02:18:27;;;;;;;;;;;22.00;62.40;;;;;;5024895;28;1403;-74
2023/07/20 02:20:53;;;;;;;;;;;22.00;62.50;;;;;;5021967;28;1245;-74
2023/07/20 02:23:18;;;;;;;;;;;22.00;63.30;;;;;;5020575;28;1906;-72
2023/07/20 02:25:44;;;;;;;;;;;22.00;62.50;;;;;;5025334;28;836;-72
2023/07/20 02:28:10;;;;;;;;;;;22.00;62.50;;;;;;5023733;28;985;-73
2023/07/20 02:30:39;;;;;;;;;;;22.00;62.50;;;;;;5018755;28;1526;-73
2023/07/20 02:33:06;;;;;;;;;;;22.00;62.50;;;;;;5022485;28;907;-73
2023/07/20 02:35:32;;;;;;;;;;;22.00;62.50;;;;;;5020242;28;1553;-73
2023/07/20 02:37:57;;;;;;;;;;;22.00;62.50;;;;;;5020327;28;820;-73
2023/07/20 02:40:23;;;;;;;;;;;22.00;62.50;;;;;;5020342;28;1272;-73
2023/07/20 02:42:48;;;;;;;;;;;22.00;62.50;;;;;;5020929;28;1973;-73
2023/07/20 02:45:14;;;;;;;;;;;22.10;62.70;;;;;;5020349;28;893;-73
2023/07/20 02:47:39;;;;;;;;;;;22.00;62.60;;;;;;5021542;28;991;-73
2023/07/20 02:50:05;;;;;;;;;;;22.00;62.60;;;;;;5020774;28;1240;-72
2023/07/20 02:52:31;;;;;;;;;;;22.00;62.60;;;;;;5021598;28;1050;-73
2023/07/20 02:54:56;;;;;;;;;;;22.00;62.60;;;;;;5021730;28;899;-73
2023/07/20 02:57:22;;;;;;;;;;;22.00;62.70;;;;;;5024817;28;876;-73
2023/07/20 02:59:47;;;;;;;;;;;22.00;62.60;;;;;;5018561;28;1294;-72
2023/07/20 03:02:13;;;;;;;;;;;22.10;62.70;;;;;;5022797;28;1902;-71
2023/07/20 03:04:38;;;;;;;;;;;22.00;62.70;;;;;;5023563;28;900;-72
2023/07/20 03:07:07;;;;;;;;;;;22.00;62.70;;;;;;5024497;28;861;-72
2023/07/20 03:09:33;;;;;;;;;;;22.00;62.70;;;;;;5021495;28;1241;-71
2023/07/20 03:11:58;;;;;;;;;;;22.00;62.70;;;;;;5021080;28;804;-72
2023/07/20 03:14:24;;;;;;;;;;;22.00;62.70;;;;;;5020904;28;1327;-72
2023/07/20 03:16:49;;;;;;;;;;;22.00;62.80;;;;;;5018084;28;852;-72
2023/07/20 03:19:15;;;;;;;;;;;22.00;62.80;;;;;;5018675;28;1291;-72
2023/07/20 03:21:41;;;;;;;;;;;22.00;62.80;;;;;;5021306;28;1906;-72
2023/07/20 03:24:09;;;;;;;;;;;22.00;62.80;;;;;;5018267;28;824;-72
2023/07/20 03:26:35;;;;;;;;;;;22.00;62.80;;;;;;5018761;28;849;-72
2023/07/20 03:29:00;;;;;;;;;;;22.10;62.80;;;;;;5018549;28;1277;-72
2023/07/20 03:31:26;;;;;;;;;;;22.00;62.80;;;;;;5020071;28;801;-72
2023/07/20 03:33:51;;;;;;;;;;;22.00;62.80;;;;;;5022014;28;1271;-72
2023/07/20 03:36:17;;;;;;;;;;;22.00;62.80;;;;;;5019184;28;1007;-73
2023/07/20 03:38:42;;;;;;;;;;;22.10;62.90;;;;;;5018954;28;824;-73
2023/07/20 03:41:09;;;;;;;;;;;22.00;62.80;;;;;;5025345;28;1281;-73
2023/07/20 03:43:34;;;;;;;;;;;22.00;62.90;;;;;;5019200;28;1910;-74
2023/07/20 03:46:00;;;;;;;;;;;22.00;62.80;;;;;;5011852;28;1429;-73
2023/07/20 03:48:25;;;;;;;;;;;22.00;62.80;;;;;;5020675;28;784;-74
2023/07/20 03:50:51;;;;;;;;;;;22.00;62.90;;;;;;5007321;28;1306;-74
2023/07/20 03:53:17;;;;;;;;;;;22.00;62.90;;;;;;5019072;28;816;-74
2023/07/20 03:55:46;;;;;;;;;;;22.00;62.90;;;;;;5020145;28;1222;-74
2023/07/20 03:58:12;;;;;;;;;;;22.00;62.90;;;;;;5020814;28;1049;-74
2023/07/20 04:00:37;;;;;;;;;;;22.00;62.90;;;;;;5020225;28;1353;-74
2023/07/20 04:03:03;;;;;;;;;;;22.00;63.00;;;;;;5018509;28;1903;-71
2023/07/20 04:05:28;;;;;;;;;;;22.00;63.00;;;;;;5021267;28;1321;-71
2023/07/20 04:07:53;;;;;;;;;;;22.00;63.00;;;;;;5021495;28;1333;-71
2023/07/20 04:10:19;;;;;;;;;;;22.00;62.90;;;;;;5020115;28;1276;-73
2023/07/20 04:12:45;;;;;;;;;;;22.00;63.00;;;;;;5020113;28;733;-73
2023/07/20 04:15:10;;;;;;;;;;;22.00;63.00;;;;;;5020922;28;864;-72
2023/07/20 04:17:36;;;;;;;;;;;22.00;63.00;;;;;;5019958;28;831;-72
2023/07/20 04:20:02;;;;;;;;;;;22.00;63.00;;;;;;5020630;28;1370;-75
2023/07/20 04:22:28;;;;;;;;;;;22.00;63.00;;;;;;5023546;28;1906;-72
2023/07/20 04:24:53;;;;;;;;;;;22.00;63.00;;;;;;5015771;28;1983;-71
2023/07/20 04:27:19;;;;;;;;;;;22.00;63.00;;;;;;5020594;28;2089;-71
2023/07/20 04:29:44;;;;;;;;;;;22.00;63.00;;;;;;5018514;28;1414;-71
2023/07/20 04:32:10;;;;;;;;;;;22.00;63.10;;;;;;5017219;28;968;-70
2023/07/20 04:34:37;;;;;;;;;;;22.00;63.00;;;;;;5020069;28;884;-71
2023/07/20 04:37:03;;;;;;;;;;;22.00;63.10;;;;;;5017001;28;822;-71
2023/07/20 04:39:28;;;;;;;;;;;22.00;63.10;;;;;;5021586;28;1358;-71
2023/07/20 04:41:54;;;;;;;;;;;22.00;63.10;;;;;;5019482;28;1910;-71
2023/07/20 04:44:19;;;;;;;;;;;22.00;63.10;;;;;;5019321;28;1267;-72
2023/07/20 04:46:46;;;;;;;;;;;22.00;63.10;;;;;;5020687;28;935;-72
2023/07/20 04:49:12;;;;;;;;;;;22.00;63.10;;;;;;5018757;28;1285;-72
2023/07/20 04:51:38;;;;;;;;;;;22.00;63.10;;;;;;5023738;28;828;-72
2023/07/20 04:54:03;;;;;;;;;;;22.00;63.10;;;;;;5015478;28;1383;-72
2023/07/20 04:56:29;;;;;;;;;;;22.10;63.20;;;;;;5017585;28;859;-72
2023/07/20 04:58:54;;;;;;;;;;;22.00;63.10;;;;;;5016138;28;1022;-71
2023/07/20 05:01:20;;;;;;;;;;;22.00;63.10;;;;;;5016421;28;1190;-70
2023/07/20 05:03:45;;;;;;;;;;;22.00;63.10;;;;;;5017210;28;1969;-70
2023/07/20 05:06:11;;;;;;;;;;;22.00;63.20;;;;;;5018194;28;891;-70
2023/07/20 05:08:36;;;;;;;;;;;22.00;63.10;;;;;;5019038;28;801;-70
2023/07/20 05:11:02;;;;;;;;;;;22.00;63.20;;;;;;5018433;28;1370;-70
2023/07/20 05:13:27;;;;;;;;;;;22.00;63.20;;;;;;5020544;28;824;-73
2023/07/20 05:15:53;;;;;;;;;;;22.00;63.20;;;;;;5023033;28;1026;-73
2023/07/20 05:18:19;;;;;;;;;;;22.00;63.20;;;;;;5020748;28;827;-73
2023/07/20 05:20:48;;;;;;;;;;;22.00;63.20;;;;;;5020477;28;1292;-73
2023/07/20 05:23:13;;;;;;;;;;;22.00;63.20;;;;;;5022068;28;1910;-72
2023/07/20 05:25:39;;;;;;;;;;;22.00;63.20;;;;;;5024296;28;820;-71
2023/07/20 05:28:04;;;;;;;;;;;22.00;63.20;;;;;;5028598;28;1253;-72
2023/07/20 05:30:30;;;;;;;;;;;22.00;63.20;;;;;;5019013;28;1284;-75
2023/07/20 05:32:55;;;;;;;;;;;22.00;63.20;;;;;;5021940;28;870;-74
2023/07/20 05:35:22;;;;;;;;;;;22.00;63.20;;;;;;5021573;28;865;-73
2023/07/20 05:37:47;;;;;;;;;;;22.00;63.30;;;;;;5024947;28;916;-73
2023/07/20 05:40:14;;;;;;;;;;;22.00;63.20;;;;;;5020293;28;1253;-72
2023/07/20 05:42:40;;;;;;;;;;;22.00;63.30;;;;;;5026918;28;1915;-73
2023/07/20 05:45:05;;;;;;;;;;;22.00;63.30;;;;;;5021763;28;1045;-71
2023/07/20 05:47:32;;;;;;;;;;;22.00;63.30;;;;;;5022765;28;846;-71
2023/07/20 05:49:57;;;;;;;;;;;22.00;63.30;;;;;;5020212;28;1270;-71
2023/07/20 05:52:23;;;;;;;;;;;22.00;64.10;;;;;;5023025;28;995;-71
2023/07/20 05:54:48;;;;;;;;;;;22.00;63.30;;;;;;5021033;28;2079;-71
2023/07/20 05:57:13;;;;;;;;;;;22.00;63.30;;;;;;5021899;28;2158;-71
2023/07/20 05:59:40;;;;;;;;;;;22.00;63.30;;;;;;5021846;28;2017;-72
2023/07/20 06:02:06;;;;;;;;;;;22.00;63.40;;;;;;5025335;28;1934;-73
2023/07/20 06:04:31;;;;;;;;;;;22.00;63.40;;;;;;5022623;28;1089;-71
2023/07/20 06:06:57;;;;;;;;;;;22.00;63.30;;;;;;5018120;28;931;-71
2023/07/20 06:09:22;;;;;;;;;;;22.00;63.40;;;;;;5021792;28;1235;-71
2023/07/20 06:11:47;;;;;;;;;;;21.90;63.30;;;;;;5021457;28;869;-71
2023/07/20 06:14:13;;;;;;;;;;;22.00;63.40;;;;;;5023103;28;989;-71
2023/07/20 06:16:38;;;;;;;;;;;22.00;63.40;;;;;;5020585;28;879;-71
2023/07/20 06:19:04;;;;;;;;;;;22.00;63.40;;;;;;5019534;28;1408;-71
2023/07/20 06:21:29;;;;;;;;;;;22.00;63.40;;;;;;5011995;28;1945;-71
2023/07/20 06:23:55;;;;;;;;;;;22.00;63.40;;;;;;5021495;28;1132;-71
2023/07/20 06:26:21;;;;;;;;;;;22.00;63.40;;;;;;5020549;28;863;-71
2023/07/20 06:28:46;;;;;;;;;;;22.00;63.40;;;;;;5019627;28;1287;-71
2023/07/20 06:31:12;;;;;;;;;;;22.00;63.40;;;;;;5019804;28;1393;-71
2023/07/20 06:33:37;;;;;;;;;;;22.00;63.50;;;;;;5021496;28;910;-71
2023/07/20 06:36:03;;;;;;;;;;;22.00;63.50;;;;;;5018697;28;860;-71
2023/07/20 06:38:29;;;;;;;;;;;22.00;63.40;;;;;;5014448;28;1104;-71
2023/07/20 06:40:54;;;;;;;;;;;22.00;63.50;;;;;;5020816;28;1369;-72
2023/07/20 06:43:20;;;;;;;;;;;22.00;63.50;;;;;;5020548;28;1965;-71
2023/07/20 06:45:50;;;;;;;;;;;22.00;63.50;;;;;;5020742;28;1321;-72
2023/07/20 06:48:15;;;;;;;;;;;22.00;63.50;;;;;;5022109;28;1408;-72
2023/07/20 06:50:42;;;;;;;;;;;22.00;63.50;;;;;;5025609;28;1713;-72
2023/07/20 06:53:08;;;;;;;;;;;22.00;63.50;;;;;;5023218;28;1078;-72
2023/07/20 06:55:33;;;;;;;;;;;22.00;63.50;;;;;;5021820;28;1655;-72
2023/07/20 06:57:58;;;;;;;;;;;22.00;63.50;;;;;;5023265;28;1327;-72
2023/07/20 07:00:24;;;;;;;;;;;22.00;63.50;;;;;;5022439;28;1347;-72
2023/07/20 07:02:49;;;;;;;;;;;22.00;63.50;;;;;;5019456;28;1953;-71
2023/07/20 07:05:15;;;;;;;;;;;22.00;63.50;;;;;;5021694;28;904;-72
2023/07/20 07:07:41;;;;;;;;;;;22.00;63.50;;;;;;5020903;28;808;-72
2023/07/20 07:10:07;;;;;;;;;;;22.00;63.50;;;;;;5017598;28;1267;-72
2023/07/20 07:12:32;;;;;;;;;;;22.00;63.50;;;;;;5020188;28;822;-72
2023/07/20 07:14:58;;;;;;;;;;;22.00;63.50;;;;;;5021909;28;1226;-72
2023/07/20 07:17:24;;;;;;;;;;;22.00;63.50;;;;;;5022435;28;969;-72
2023/07/20 07:19:53;;;;;;;;;;;22.00;63.50;;;;;;5021508;28;1461;-72
2023/07/20 07:22:19;;;;;;;;;;;22.00;63.50;;;;;;5018604;28;1898;-72
2023/07/20 07:24:44;;;;;;;;;;;22.00;63.50;;;;;;5021879;28;1006;-72
2023/07/20 07:27:10;;;;;;;;;;;22.00;63.60;;;;;;5022075;28;1269;-72
2023/07/20 07:29:35;;;;;;;;;;;22.00;63.60;;;;;;5018687;28;1213;-72
2023/07/20 07:32:01;;;;;;;;;;;22.00;63.60;;;;;;5018302;28;891;-72
2023/07/20 07:34:27;;;;;;;;;;;22.00;63.60;;;;;;5020341;28;1632;-72
2023/07/20 07:36:52;;;;;;;;;;;22.00;63.60;;;;;;5018912;28;1432;-72
2023/07/20 07:39:18;;;;;;;;;;;22.00;63.60;;;;;;5016220;28;1300;-73
2023/07/20 07:41:43;;;;;;;;;;;22.00;63.60;;;;;;5018605;28;1938;-72
2023/07/20 07:44:09;;;;;;;;;;;22.00;63.60;;;;;;5020508;28;1294;-72
2023/07/20 07:46:34;;;;;;;;;;;22.00;63.60;;;;;;5020889;28;1018;-72
2023/07/20 07:49:00;;;;;;;;;;;22.00;63.60;;;;;;5021796;28;860;-72
2023/07/20 07:51:27;;;;;;;;;;;22.00;63.60;;;;;;5019759;28;1268;-72
2023/07/20 07:53:52;;;;;;;;;;;22.00;63.60;;;;;;5018924;28;883;-72
2023/07/20 07:56:22;;;;;;;;;;;22.00;63.60;;;;;;5020297;28;990;-72
2023/07/20 07:58:48;;;;;;;;;;;22.00;63.60;;;;;;5021669;28;836;-72
2023/07/20 08:01:14;;;;;;;;;;;22.00;63.60;;;;;;5020442;28;1352;-72
2023/07/20 08:03:40;;;;;;;;;;;22.00;63.60;;;;;;5022065;28;1977;-72
2023/07/20 08:06:05;;;;;;;;;;;22.00;63.60;;;;;;5019165;28;846;-72
2023/07/20 08:08:31;;;;;;;;;;;22.00;63.60;;;;;;5015538;28;871;-72
2023/07/20 08:10:57;;;;;;;;;;;22.00;63.70;;;;;;5017877;28;1264;-72
2023/07/20 08:13:23;;;;;;;;;;;22.00;63.70;;;;;;5017688;28;858;-72
2023/07/20 08:15:49;;;;;;;;;;;22.00;63.70;;;;;;5019350;28;898;-72
2023/07/20 08:18:14;;;;;;;;;;;22.00;63.70;;;;;;5016267;28;1314;-72
2023/07/20 08:20:43;;;;;;;;;;;22.00;63.80;;;;;;5015168;28;1259;-72
2023/07/20 08:23:09;;;;;;;;;;;22.00;63.70;;;;;;5019406;28;1963;-72
2023/07/20 08:25:36;;;;;;;;;;;22.00;63.70;;;;;;5020578;28;891;-72
2023/07/20 08:28:02;;;;;;;;;;;22.00;63.70;;;;;;5020164;28;1257;-72
2023/07/20 08:30:34;;;;;;;;;;;22.00;63.70;;;;;;5018589;28;1247;-72
2023/07/20 08:33:00;;;;;;;;;;;22.00;63.70;;;;;;5018683;28;1408;-72
2023/07/20 08:35:26;;;;;;;;;;;22.00;63.70;;;;;;5014764;28;828;-72
2023/07/20 08:37:51;;;;;;;;;;;22.00;63.70;;;;;;5021265;28;883;-72
2023/07/20 08:40:17;;;;;;;;;;;22.00;63.70;;;;;;5019233;28;1277;-72
2023/07/20 08:42:42;;;;;;;;;;;22.00;63.80;;;;;;5017869;28;1902;-72
2023/07/20 08:45:08;;;;;;;;;;;22.00;63.70;;;;;;5016527;28;1334;-72
2023/07/20 08:47:34;;;;;;;;;;;22.00;63.80;;;;;;5018985;28;1181;-72
2023/07/20 08:49:59;;;;;;;;;;;22.00;63.80;;;;;;5022041;28;1288;-71
2023/07/20 08:52:25;;;;;;;;;;;22.00;63.80;;;;;;5023467;28;910;-71
2023/07/20 08:54:51;;;;;;;;;;;22.00;63.80;;;;;;5019903;28;833;-72
2023/07/20 08:57:16;;;;;;;;;;;22.00;63.80;;;;;;5010345;28;1362;-72
2023/07/20 08:59:42;;;;;;;;;;;22.00;63.80;;;;;;5012709;28;1343;-73
2023/07/20 09:02:07;;;;;;;;;;;22.00;63.80;;;;;;5010791;28;1973;-73
2023/07/20 09:04:32;;;;;;;;;;;22.00;63.80;;;;;;5020130;28;821;-73
2023/07/20 09:06:58;;;;;;;;;;;22.00;63.80;;;;;;5009685;28;1686;-73
2023/07/20 09:09:23;;;;;;;;;;;22.00;63.80;;;;;;5015604;28;1256;-72
2023/07/20 09:11:49;;;;;;;;;;;22.00;64.00;;;;;;5016632;28;864;-73
2023/07/20 09:14:14;;;;;;;;;;;22.00;63.80;;;;;;5015503;28;911;-69
2023/07/20 09:16:53;;;;;;;;;;;22.00;63.80;;;;;;5013321;28;1142;-71
2023/07/20 09:19:18;;;;;;;;;;;22.00;63.90;;;;;;5018750;28;1256;-73
2023/07/20 09:21:45;;;;;;;;;;;22.00;63.90;;;;;;5017436;28;2179;-71
2023/07/20 09:24:10;;;;;;;;;;;22.00;63.90;;;;;;5017817;28;1437;-71
2023/07/20 09:26:40;;;;;;;;;;;22.00;63.90;;;;;;5019532;28;1467;-71
2023/07/20 09:29:05;;;;;;;;;;;22.00;63.90;;;;;;5019257;28;1498;-71
2023/07/20 09:31:31;;;;;;;;;;;22.00;63.90;;;;;;5017306;28;2471;-71
2023/07/20 09:33:56;;;;;;;;;;;22.00;63.90;;;;;;5019097;28;1598;-72
2023/07/20 09:36:22;;;;;;;;;;;22.00;63.90;;;;;;5021074;28;1359;-72
2023/07/20 09:38:47;;;;;;;;;;;22.00;63.90;;;;;;5017596;28;1050;-70
2023/07/20 09:41:13;;;;;;;;;;;22.00;63.90;;;;;;5017706;28;1386;-71
2023/07/20 09:43:39;;;;;;;;;;;22.00;63.90;;;;;;5016905;28;1914;-70
2023/07/20 09:46:04;;;;;;;;;;;22.00;63.90;;;;;;5017240;28;794;-70
2023/07/20 09:48:30;;;;;;;;;;;22.00;63.90;;;;;;5019771;28;894;-69
2023/07/20 09:50:55;;;;;;;;;;;22.00;63.90;;;;;;5017402;28;1285;-69
2023/07/20 09:53:21;;;;;;;;;;;22.00;64.00;;;;;;5019158;28;866;-69
2023/07/20 09:55:47;;;;;;;;;;;22.00;63.90;;;;;;5018496;28;840;-68
2023/07/20 09:58:13;;;;;;;;;;;22.00;63.90;;;;;;5017207;28;865;-68
2023/07/20 10:00:38;;;;;;;;;;;22.00;64.00;;;;;;5014224;28;1246;-69
2023/07/20 10:03:04;;;;;;;;;;;22.00;63.90;;;;;;5013841;28;1938;-69
2023/07/20 10:05:33;;;;;;;;;;;22.00;64.00;;;;;;5019487;28;912;-70
2023/07/20 10:07:59;;;;;;;;;;;22.00;64.00;;;;;;5017493;28;845;-69
2023/07/20 10:10:24;;;;;;;;;;;22.00;64.00;;;;;;5018081;28;1251;-69
2023/07/20 10:12:51;;;;;;;;;;;22.00;64.00;;;;;;5020044;28;884;-70
2023/07/20 10:15:24;;;;;;;;;;;22.00;64.00;;;;;;5019243;28;883;-70
2023/07/20 10:17:54;;;;;;;;;;;22.00;63.90;;;;;;5025332;28;868;-70
2023/07/20 10:20:20;;;;;;;;;;;22.00;64.00;;;;;;5020604;28;1373;-70
2023/07/20 10:22:46;;;;;;;;;;;22.00;64.00;;;;;;5020504;28;2001;-70
2023/07/20 10:25:13;;;;;;;;;;;22.00;64.10;;;;;;5020214;28;882;-70
2023/07/20 10:27:39;;;;;;;;;;;22.00;64.00;;;;;;5018841;28;1347;-70
2023/07/20 10:30:05;;;;;;;;;;;22.00;64.00;;;;;;5018743;28;1378;-70
2023/07/20 10:32:30;;;;;;;;;;;22.00;64.00;;;;;;5018128;28;925;-70
2023/07/20 10:34:56;;;;;;;;;;;22.00;64.00;;;;;;5022644;28;830;-69
2023/07/20 10:37:40;;;;;;;;;;;22.00;64.00;;;;;;5012830;28;960;-69
2023/07/20 10:40:27;;;;;;;;;;;22.00;64.00;;;;;;5016758;28;1299;-69
2023/07/20 10:42:57;;;;;;;;;;;22.00;64.10;;;;;;5019830;28;1963;-69
2023/07/20 10:45:32;;;;;;;;;;;22.00;64.00;;;;;;5016655;28;1065;-69
2023/07/20 10:47:58;;;;;;;;;;;21.90;64.00;;;;;;5020568;28;814;-70
2023/07/20 10:50:23;;;;;;;;;;;21.90;64.00;;;;;;5020435;28;1946;-69
2023/07/20 10:53:04;;;;;;;;;;;22.00;64.10;;;;;;5017770;28;1481;-69
2023/07/20 10:55:30;;;;;;;;;;;21.90;64.00;;;;;;5020057;28;1429;-69
2023/07/20 10:58:11;;;;;;;;;;;22.00;64.10;;;;;;5020664;28;2443;-69
2023/07/20 11:00:36;;;;;;;;;;;22.00;64.10;;;;;;5022224;28;1435;-69
2023/07/20 11:03:02;;;;;;;;;;;22.00;64.10;;;;;;5023875;28;1946;-69
2023/07/20 11:05:35;;;;;;;;;;;22.00;64.10;;;;;;5019514;28;1226;-69
2023/07/20 11:08:00;;;;;;;;;;;22.00;64.20;;;;;;5018219;28;1250;-70
2023/07/20 11:10:26;;;;;;;;;;;21.90;64.10;;;;;;5019843;28;2040;-70
2023/07/20 11:13:10;;;;;;;;;;;22.00;64.20;;;;;;5022155;28;1035;-70
2023/07/20 11:15:46;;;;;;;;;;;21.90;64.10;;;;;;5021736;28;1344;-69
2023/07/20 11:18:11;;;;;;;;;;;22.00;64.10;;;;;;5019842;28;1343;-70
2023/07/20 11:20:37;;;;;;;;;;;22.00;64.20;;;;;;5023251;28;1265;-69
2023/07/20 11:23:02;;;;;;;;;;;22.00;64.10;;;;;;5023600;28;1902;-68
2023/07/20 11:25:35;;;;;;;;;;;22.00;64.20;;;;;;5020550;28;896;-69
2023/07/20 11:28:01;;;;;;;;;;;21.90;64.10;;;;;;5018355;28;1242;-70
2023/07/20 11:30:26;;;;;;;;;;;21.90;64.10;;;;;;5014798;28;1212;-70
2023/07/20 11:32:52;;;;;;;;;;;22.00;64.20;;;;;;5019067;28;979;-69
2023/07/20 11:35:17;;;;;;;;;;;22.00;64.20;;;;;;5019700;28;939;-69
2023/07/20 11:37:42;;;;;;;;;;;21.90;64.90;;;;;;5012197;28;5185;-69
2023/07/20 11:40:09;;;;;;;;;;;21.90;64.20;;;;;;5001658;28;4463;-69
2023/07/20 11:42:35;;;;;;;;;;;21.90;64.20;;;;;;5000450;28;1907;-69
2023/07/20 11:45:02;;;;;;;;;;;21.90;64.10;;;;;;4992507;28;1006;-70
2023/07/20 11:47:28;;;;;;;;;;;21.90;64.20;;;;;;4999299;28;867;-69
2023/07/20 11:49:54;;;;;;;;;;;21.90;64.10;;;;;;4996647;28;1971;-69
2023/07/20 11:52:19;;;;;;;;;;;21.90;64.20;;;;;;4998194;28;795;-69
2023/07/20 11:54:45;;;;;;;;;;;21.90;64.10;;;;;;4999609;28;1869;-69
2023/07/20 11:57:17;;;;;;;;;;;21.90;64.20;;;;;;4999870;28;1373;-70
2023/07/20 11:59:57;;;;;;;;;;;21.90;64.20;;;;;;4999451;28;1463;-70
2023/07/20 12:02:22;;;;;;;;;;;21.90;64.20;;;;;;4989398;28;4147;-69
2023/07/20 12:04:48;;;;;;;;;;;21.90;64.20;;;;;;4988284;28;2137;-69
2023/07/20 12:07:14;;;;;;;;;;;21.90;64.10;;;;;;4984070;28;2191;-70
2023/07/20 12:09:39;;;;;;;;;;;21.90;64.20;;;;;;4998836;28;1646;-69
2023/07/20 12:12:14;;;;;;;;;;;21.90;64.20;;;;;;4998331;28;1301;-69
2023/07/20 12:14:39;;;;;;;;;;;21.90;64.20;;;;;;4997699;28;1354;-70
2023/07/20 12:17:04;;;;;;;;;;;21.90;64.20;;;;;;4993739;28;1226;-69
2023/07/20 12:19:30;;;;;;;;;;;21.90;64.20;;;;;;4990582;28;1474;-70
2023/07/20 12:21:59;;;;;;;;;;;21.90;64.20;;;;;;4999408;28;1961;-70
2023/07/20 12:24:24;;;;;;;;;;;21.90;64.20;;;;;;4994616;28;891;-69
2023/07/20 12:26:55;;;;;;;;;;;21.90;64.20;;;;;;4995746;28;1007;-69
2023/07/20 12:29:21;;;;;;;;;;;22.00;64.30;;;;;;4987745;28;1376;-69
2023/07/20 12:31:46;;;;;;;;;;;21.90;64.20;;;;;;4996986;28;813;-69
2023/07/20 12:34:12;;;;;;;;;;;21.90;64.20;;;;;;4999888;28;1877;-69
2023/07/20 12:36:37;;;;;;;;;;;21.90;64.20;;;;;;5003431;28;1338;-69
2023/07/20 12:39:04;;;;;;;;;;;21.90;64.20;;;;;;4996831;28;1443;-69
2023/07/20 12:41:30;;;;;;;;;;;21.90;64.20;;;;;;4996450;28;1965;-68
2023/07/20 12:43:57;;;;;;;;;;;21.90;64.20;;;;;;4999761;28;1906;-69
2023/07/20 12:46:23;;;;;;;;;;;21.90;64.30;;;;;;5000179;28;1415;-70
2023/07/20 12:48:48;;;;;;;;;;;21.90;64.30;;;;;;4984537;28;2137;-69
2023/07/20 12:51:14;;;;;;;;;;;21.90;64.30;;;;;;5001557;28;1269;-69
2023/07/20 12:53:39;;;;;;;;;;;21.90;64.30;;;;;;4998365;28;1279;-70
2023/07/20 12:56:04;;;;;;;;;;;21.90;64.30;;;;;;4997108;28;856;-68
2023/07/20 12:58:30;;;;;;;;;;;21.90;64.30;;;;;;4994709;28;931;-68
2023/07/20 13:00:56;;;;;;;;;;;21.90;64.30;;;;;;4990957;28;1394;-68
2023/07/20 13:03:21;;;;;;;;;;;21.90;64.30;;;;;;5000481;28;1961;-70
2023/07/20 13:05:47;;;;;;;;;;;21.90;64.30;;;;;;4998648;28;2212;-70
2023/07/20 13:08:12;;;;;;;;;;;21.90;64.30;;;;;;4994920;28;1341;-70
2023/07/20 13:10:41;;;;;;;;;;;22.00;64.30;;;;;;4994393;28;1452;-70
2023/07/20 13:13:06;;;;;;;;;;;21.90;64.30;;;;;;4998007;28;863;-70
2023/07/20 13:15:32;;;;;;;;;;;21.90;64.30;;;;;;4997696;28;887;-70
2023/07/20 13:17:58;;;;;;;;;;;21.90;64.30;;;;;;4996138;28;923;-70
2023/07/20 13:20:24;;;;;;;;;;;21.90;64.40;;;;;;4996136;28;1382;-69
2023/07/20 13:22:52;;;;;;;;;;;21.90;64.30;;;;;;4988868;28;1910;-70
2023/07/20 13:25:18;;;;;;;;;;;21.90;64.30;;;;;;4998468;28;971;-70
2023/07/20 13:27:44;;;;;;;;;;;22.00;64.40;;;;;;4983118;28;1311;-70
2023/07/20 13:30:16;;;;;;;;;;;21.90;64.30;;;;;;4999816;28;1282;-70
2023/07/20 13:32:41;;;;;;;;;;;21.90;64.30;;;;;;4998549;28;793;-70
2023/07/20 13:35:07;;;;;;;;;;;22.00;64.40;;;;;;4996437;28;904;-70
2023/07/20 13:37:33;;;;;;;;;;;21.90;64.40;;;;;;5001572;28;807;-70
2023/07/20 13:39:58;;;;;;;;;;;21.90;64.30;;;;;;4996095;28;1338;-70
2023/07/20 13:42:24;;;;;;;;;;;21.90;64.30;;;;;;5001930;28;1942;-70
2023/07/20 13:44:49;;;;;;;;;;;21.90;64.30;;;;;;4999324;28;1298;-70
2023/07/20 13:47:15;;;;;;;;;;;21.90;64.30;;;;;;5001605;28;849;-70
2023/07/20 13:49:40;;;;;;;;;;;21.90;64.40;;;;;;5002056;28;1358;-70
2023/07/20 13:52:06;;;;;;;;;;;21.90;64.40;;;;;;4998339;28;922;-70
2023/07/20 13:54:31;;;;;;;;;;;21.90;64.40;;;;;;5008129;28;879;-70
2023/07/20 13:56:57;;;;;;;;;;;21.90;64.40;;;;;;5002570;28;999;-69
2023/07/20 13:59:22;;;;;;;;;;;21.90;64.40;;;;;;5003298;28;1266;-70
2023/07/20 14:01:49;;;;;;;;;;;21.90;64.40;;;;;;5002313;28;1902;-70
2023/07/20 14:04:14;;;;;;;;;;;21.90;64.40;;;;;;4998748;28;873;-70
2023/07/20 14:06:40;;;;;;;;;;;21.90;64.40;;;;;;5002584;28;1449;-70
2023/07/20 14:09:05;;;;;;;;;;;21.90;64.40;;;;;;5002869;28;2077;-71
2023/07/20 14:11:31;;;;;;;;;;;21.90;64.40;;;;;;5004028;28;1358;-70
2023/07/20 14:13:58;;;;;;;;;;;21.90;64.40;;;;;;5003731;28;1378;-69
2023/07/20 14:16:23;;;;;;;;;;;21.90;64.40;;;;;;5002551;28;919;-71
2023/07/20 14:18:49;;;;;;;;;;;21.90;64.40;;;;;;4999288;28;1331;-70
2023/07/20 14:21:15;;;;;;;;;;;21.90;65.20;;;;;;5000736;28;1290;-69
2023/07/20 14:23:40;;;;;;;;;;;21.90;64.40;;;;;;5001513;28;1907;-69
2023/07/20 14:26:07;;;;;;;;;;;21.90;64.40;;;;;;5003360;28;2157;-71
2023/07/20 14:28:32;;;;;;;;;;;21.90;64.40;;;;;;5004810;28;1485;-69
2023/07/20 14:30:58;;;;;;;;;;;21.90;64.40;;;;;;5002895;28;1343;-69